Time;durP1;ratioP1;P1;durP2;ratioP2;P2;SDS_P1;SDS_P2;PMS_P1;PMS_P2;Temp;Humidity;BMP_temperature;BMP_pressure;BME280_temperature;BME280_humidity;BME280_pressure;Samples;Min_cycle;Max_cycle;Signal;HPM_P1;HPM_P2
2023/01/16 00:01:59;;;;;;;10.77;1.65;;;;;;;;;;5095803;28;20412;-58
2023/01/16 00:04:24;;;;;;;7.80;1.48;;;;;;;;;;5097737;28;20108;-59
2023/01/16 00:06:50;;;;;;;5.93;1.40;;;;;;;;;;5097003;28;20464;-64
2023/01/16 00:09:15;;;;;;;4.75;1.65;;;;;;;;;;5095484;28;20016;-59
2023/01/16 00:11:41;;;;;;;7.47;1.30;;;;;;;;;;5095388;28;20097;-58
2023/01/16 00:14:06;;;;;;;7.53;1.17;;;;;;;;;;5095679;28;20020;-62
2023/01/16 00:16:32;;;;;;;4.30;0.82;;;;;;;;;;5095608;28;20073;-58
2023/01/16 00:18:58;;;;;;;4.30;1.33;;;;;;;;;;5095437;28;20387;-58
2023/01/16 00:21:26;;;;;;;5.07;1.05;;;;;;;;;;5094007;28;20023;-59
2023/01/16 00:23:53;;;;;;;2.70;1.10;;;;;;;;;;5093947;28;20033;-58
2023/01/16 00:26:18;;;;;;;4.30;1.15;;;;;;;;;;5093824;28;20030;-59
2023/01/16 00:28:44;;;;;;;7.10;1.40;;;;;;;;;;5095000;28;20008;-59
2023/01/16 00:31:09;;;;;;;6.70;1.23;;;;;;;;;;5094908;28;20030;-58
2023/01/16 00:33:35;;;;;;;6.28;1.25;;;;;;;;;;5093916;28;20042;-59
2023/01/16 00:36:01;;;;;;;3.42;0.68;;;;;;;;;;5093836;28;20027;-59
2023/01/16 00:38:26;;;;;;;2.70;0.63;;;;;;;;;;5093705;28;20027;-59
2023/01/16 00:40:53;;;;;;;3.92;1.20;;;;;;;;;;5093743;28;20473;-59
2023/01/16 00:43:18;;;;;;;4.13;0.60;;;;;;;;;;5093616;28;20469;-58
2023/01/16 00:45:44;;;;;;;4.68;0.73;;;;;;;;;;5093557;28;20031;-59
2023/01/16 00:48:09;;;;;;;6.80;1.00;;;;;;;;;;5094784;28;20531;-60
2023/01/16 00:50:39;;;;;;;1.58;0.50;;;;;;;;;;5093758;28;20016;-58
2023/01/16 00:53:04;;;;;;;4.07;0.70;;;;;;;;;;5094765;28;20056;-58
2023/01/16 00:55:36;;;;;;;2.90;0.50;;;;;;;;;;5093091;28;20081;-61
2023/01/16 00:58:02;;;;;;;2.70;0.70;;;;;;;;;;5094353;28;20069;-59
2023/01/16 01:00:27;;;;;;;1.45;0.45;;;;;;;;;;5095179;28;20016;-62
2023/01/16 01:02:53;;;;;;;2.05;0.47;;;;;;;;;;5097754;28;20082;-63
2023/01/16 01:05:18;;;;;;;1.38;0.20;;;;;;;;;;5098127;28;20074;-61
2023/01/16 01:07:44;;;;;;;3.20;0.30;;;;;;;;;;5094388;28;20032;-59
2023/01/16 01:10:10;;;;;;;0.93;0.25;;;;;;;;;;5094134;28;20453;-59
2023/01/16 01:12:36;;;;;;;1.08;0.20;;;;;;;;;;5094905;28;20024;-64
2023/01/16 01:15:03;;;;;;;1.08;0.20;;;;;;;;;;5094516;28;20016;-58
2023/01/16 01:17:28;;;;;;;3.17;0.40;;;;;;;;;;5095596;28;20461;-59
2023/01/16 01:19:53;;;;;;;2.72;0.28;;;;;;;;;;5094516;28;20012;-59
2023/01/16 01:22:19;;;;;;;3.13;0.30;;;;;;;;;;5095575;28;20384;-61
2023/01/16 01:24:48;;;;;;;0.85;0.10;;;;;;;;;;5093367;28;20397;-65
2023/01/16 01:27:14;;;;;;;0.65;0.15;;;;;;;;;;5094426;28;20012;-63
2023/01/16 01:29:40;;;;;;;1.58;0.20;;;;;;;;;;5095682;28;20028;-59
2023/01/16 01:32:05;;;;;;;3.08;0.30;;;;;;;;;;5093571;28;20071;-68
2023/01/16 01:34:33;;;;;;;1.13;0.20;;;;;;;;;;5094957;28;20536;-60
2023/01/16 01:36:59;;;;;;;7.07;0.68;;;;;;;;;;5094153;28;20464;-64
2023/01/16 01:39:25;;;;;;;1.75;0.20;;;;;;;;;;5095165;28;20019;-60
2023/01/16 01:42:41;;;;;;;1.63;0.20;;;;;;;;;;5093231;28;20051;-59
2023/01/16 01:44:56;;;;;;;6.65;0.20;;;;;;;;;;5095157;28;20085;-61
2023/01/16 01:47:24;;;;;;;0.63;0.10;;;;;;;;;;5095944;28;20067;-60
2023/01/16 01:49:54;;;;;;;0.15;0.10;;;;;;;;;;5096335;28;20024;-63
2023/01/16 01:52:20;;;;;;;2.35;0.10;;;;;;;;;;5095979;28;20075;-60
2023/01/16 01:54:49;;;;;;;2.03;0.08;;;;;;;;;;5095832;28;20384;-59
2023/01/16 01:57:22;;;;;;;2.42;0.10;;;;;;;;;;5094142;28;20020;-60
2023/01/16 02:00:11;;;;;;;0.98;0.20;;;;;;;;;;5093936;28;20205;-59
2023/01/16 02:02:39;;;;;;;2.42;0.20;;;;;;;;;;5081705;28;20052;-59
2023/01/16 02:05:07;;;;;;;0.35;0.10;;;;;;;;;;5093640;28;20624;-59
2023/01/16 02:07:32;;;;;;;2.05;0.10;;;;;;;;;;5092214;28;20103;-59
2023/01/16 02:10:05;;;;;;;2.03;0.10;;;;;;;;;;5092157;28;20500;-59
2023/01/16 02:12:31;;;;;;;2.53;0.10;;;;;;;;;;5093444;28;20177;-61
2023/01/16 02:14:58;;;;;;;3.45;0.10;;;;;;;;;;5095882;28;20048;-61
2023/01/16 02:20:13;;;;;;;2.33;0.90;;;;;;;;;;5093344;28;20027;-59
2023/01/16 02:22:57;;;;;;;1.65;0.10;;;;;;;;;;5093029;28;20081;-59
2023/01/16 02:25:40;;;;;;;1.20;0.10;;;;;;;;;;5093426;28;20111;-59
2023/01/16 02:28:09;;;;;;;0.35;0.08;;;;;;;;;;5092041;28;20464;-58
2023/01/16 02:30:56;;;;;;;0.40;0.10;;;;;;;;;;5093057;28;20027;-59
2023/01/16 02:33:45;;;;;;;0.43;0.10;;;;;;;;;;5051449;28;20445;-63
2023/01/16 02:36:27;;;;;;;0.60;0.10;;;;;;;;;;5094144;28;20107;-59
2023/01/16 02:39:04;;;;;;;0.57;0.00;;;;;;;;;;5093107;28;20016;-59
2023/01/16 02:41:43;;;;;;;0.90;0.22;;;;;;;;;;5093670;28;20444;-57
2023/01/16 02:44:23;;;;;;;0.22;0.10;;;;;;;;;;5093476;28;20036;-58
2023/01/16 02:46:58;;;;;;;0.98;0.20;;;;;;;;;;5095845;28;20024;-58
2023/01/16 02:49:23;;;;;;;;;;;;;;;;;;5095959;28;20070;-59
2023/01/16 02:51:53;;;;;;;1.38;0.10;;;;;;;;;;5096639;28;19907;-59
2023/01/16 02:54:45;;;;;;;1.50;0.20;;;;;;;;;;5095614;28;20392;-61
2023/01/16 02:57:12;;;;;;;0.57;0.10;;;;;;;;;;5091088;28;20036;-59
2023/01/16 02:59:40;;;;;;;2.75;0.22;;;;;;;;;;5096736;28;20043;-59
2023/01/16 03:02:05;;;;;;;0.45;0.00;;;;;;;;;;5095032;28;20457;-59
2023/01/16 03:04:34;;;;;;;0.25;0.00;;;;;;;;;;5094936;28;20039;-61
2023/01/16 03:07:05;;;;;;;0.10;0.00;;;;;;;;;;5096634;28;20020;-58
2023/01/16 03:09:33;;;;;;;0.98;0.20;;;;;;;;;;5097172;28;20039;-62
2023/01/16 03:12:17;;;;;;;0.68;0.00;;;;;;;;;;5096768;28;20016;-59
2023/01/16 03:14:44;;;;;;;0.13;0.05;;;;;;;;;;5096353;28;20121;-59
2023/01/16 03:17:09;;;;;;;1.23;0.20;;;;;;;;;;5096160;28;20240;-59
2023/01/16 03:19:38;;;;;;;0.73;0.10;;;;;;;;;;5095350;28;20051;-59
2023/01/16 03:22:16;;;;;;;0.90;0.10;;;;;;;;;;5096547;28;20069;-59
2023/01/16 03:24:54;;;;;;;1.08;0.35;;;;;;;;;;5094969;28;20028;-59
2023/01/16 03:27:25;;;;;;;1.00;0.00;;;;;;;;;;5096446;28;20035;-60
2023/01/16 03:29:59;;;;;;;2.33;0.40;;;;;;;;;;5096659;28;20097;-59
2023/01/16 03:32:27;;;;;;;1.35;0.10;;;;;;;;;;5096423;28;20160;-59
2023/01/16 03:35:06;;;;;;;1.95;0.20;;;;;;;;;;5095322;28;20020;-63
2023/01/16 03:37:40;;;;;;;0.10;0.00;;;;;;;;;;5096072;28;20020;-61
2023/01/16 03:40:07;;;;;;;0.47;0.10;;;;;;;;;;5096114;28;20016;-59
2023/01/16 03:42:34;;;;;;;0.10;0.00;;;;;;;;;;5096549;28;20023;-59
2023/01/16 03:45:04;;;;;;;1.50;0.55;;;;;;;;;;5094389;28;20038;-60
2023/01/16 03:47:33;;;;;;;0.10;0.00;;;;;;;;;;5094452;28;20145;-60
2023/01/16 03:50:02;;;;;;;1.05;0.00;;;;;;;;;;5097216;28;20473;-67
2023/01/16 03:52:31;;;;;;;3.58;0.10;;;;;;;;;;5099410;28;20019;-59
2023/01/16 03:55:12;;;;;;;1.90;0.20;;;;;;;;;;5098781;28;20051;-61
2023/01/16 03:57:40;;;;;;;1.23;0.43;;;;;;;;;;5095322;28;20020;-59
2023/01/16 04:00:07;;;;;;;3.25;0.28;;;;;;;;;;5095762;28;20089;-59
2023/01/16 04:02:38;;;;;;;1.33;0.10;;;;;;;;;;5095373;28;20055;-59
2023/01/16 04:05:07;;;;;;;3.03;0.30;;;;;;;;;;5093618;28;20032;-61
2023/01/16 04:07:47;;;;;;;3.28;0.10;;;;;;;;;;5095460;28;20544;-60
2023/01/16 04:10:15;;;;;;;1.58;0.10;;;;;;;;;;5094298;28;20495;-62
2023/01/16 04:12:43;;;;;;;1.23;0.00;;;;;;;;;;5095169;28;20022;-60
2023/01/16 04:15:09;;;;;;;0.75;0.00;;;;;;;;;;5093765;28;20110;-59
2023/01/16 04:17:36;;;;;;;1.75;0.30;;;;;;;;;;5095358;28;20490;-59
2023/01/16 04:20:02;;;;;;;0.22;0.05;;;;;;;;;;5095265;28;20024;-58
2023/01/16 04:22:28;;;;;;;0.20;0.00;;;;;;;;;;5093952;28;20021;-58
2023/01/16 04:24:55;;;;;;;0.10;0.08;;;;;;;;;;5095290;28;20036;-59
2023/01/16 04:27:21;;;;;;;0.10;0.10;;;;;;;;;;5094999;28;20477;-59
2023/01/16 04:29:46;;;;;;;0.30;0.05;;;;;;;;;;5094992;28;20012;-59
2023/01/16 04:32:11;;;;;;;1.30;0.32;;;;;;;;;;5094798;28;20026;-60
2023/01/16 04:34:37;;;;;;;1.33;0.10;;;;;;;;;;5094703;28;20069;-59
2023/01/16 04:37:02;;;;;;;0.20;0.00;;;;;;;;;;5093666;28;20023;-59
2023/01/16 04:39:28;;;;;;;0.20;0.00;;;;;;;;;;5093857;28;20020;-59
2023/01/16 04:41:53;;;;;;;2.67;0.13;;;;;;;;;;5094912;28;20536;-59
2023/01/16 04:44:19;;;;;;;0.95;0.30;;;;;;;;;;5094912;28;20024;-59
2023/01/16 04:46:44;;;;;;;0.57;0.10;;;;;;;;;;5093116;28;20024;-59
2023/01/16 04:49:09;;;;;;;0.20;0.05;;;;;;;;;;5093124;28;20017;-58
2023/01/16 04:51:36;;;;;;;0.50;0.00;;;;;;;;;;5094912;28;20027;-58
2023/01/16 04:54:02;;;;;;;0.60;0.25;;;;;;;;;;5093627;28;20217;-59
2023/01/16 04:56:27;;;;;;;0.10;0.00;;;;;;;;;;5093620;28;20520;-58
2023/01/16 04:58:53;;;;;;;1.40;0.20;;;;;;;;;;5094560;28;20053;-58
2023/01/16 05:01:19;;;;;;;0.65;0.10;;;;;;;;;;5094452;28;20013;-59
2023/01/16 05:03:44;;;;;;;1.20;0.30;;;;;;;;;;5094560;28;20028;-59
2023/01/16 05:06:10;;;;;;;0.75;0.00;;;;;;;;;;5094559;28;20099;-59
2023/01/16 05:08:36;;;;;;;0.60;0.10;;;;;;;;;;5096120;28;20026;-60
2023/01/16 05:11:02;;;;;;;1.65;0.30;;;;;;;;;;5096677;28;20016;-59
2023/01/16 05:13:28;;;;;;;0.93;0.25;;;;;;;;;;5094696;28;20026;-59
2023/01/16 05:15:53;;;;;;;3.90;0.20;;;;;;;;;;5094296;28;20020;-59
2023/01/16 05:18:19;;;;;;;1.15;0.05;;;;;;;;;;5094995;28;20016;-63
2023/01/16 05:20:44;;;;;;;1.60;0.30;;;;;;;;;;5096556;28;20460;-59
2023/01/16 05:23:10;;;;;;;0.43;0.32;;;;;;;;;;5096234;28;20020;-58
2023/01/16 05:25:36;;;;;;;1.58;0.32;;;;;;;;;;5095191;28;20073;-59
2023/01/16 05:28:02;;;;;;;1.80;0.45;;;;;;;;;;5095277;28;20016;-59
2023/01/16 05:30:27;;;;;;;0.30;0.13;;;;;;;;;;5094948;28;20020;-58
2023/01/16 05:32:53;;;;;;;0.57;0.00;;;;;;;;;;5093145;28;20069;-59
2023/01/16 05:35:19;;;;;;;0.20;0.10;;;;;;;;;;5093541;28;20473;-58
2023/01/16 05:37:45;;;;;;;0.47;0.22;;;;;;;;;;5093619;28;20503;-61
2023/01/16 05:40:11;;;;;;;2.30;0.35;;;;;;;;;;5093366;28;20099;-58
2023/01/16 05:42:38;;;;;;;0.20;0.10;;;;;;;;;;5093703;28;20472;-58
2023/01/16 05:45:03;;;;;;;0.73;0.28;;;;;;;;;;5094099;28;20391;-60
2023/01/16 05:47:29;;;;;;;2.08;0.30;;;;;;;;;;5096826;28;20095;-59
2023/01/16 05:49:58;;;;;;;3.20;0.43;;;;;;;;;;5097011;28;20030;-60
2023/01/16 05:52:24;;;;;;;0.57;0.10;;;;;;;;;;5095335;28;20377;-59
2023/01/16 05:54:51;;;;;;;1.35;0.20;;;;;;;;;;5094701;28;20016;-60
2023/01/16 05:57:16;;;;;;;7.88;1.65;;;;;;;;;;5094747;28;20024;-63
2023/01/16 05:59:45;;;;;;;0.20;0.05;;;;;;;;;;5093605;28;20012;-60
2023/01/16 06:02:11;;;;;;;1.60;0.00;;;;;;;;;;5092980;28;20055;-60
2023/01/16 06:04:36;;;;;;;1.55;0.10;;;;;;;;;;5096842;28;20028;-59
2023/01/16 06:07:02;;;;;;;1.35;0.30;;;;;;;;;;5094146;28;20016;-61
2023/01/16 06:09:27;;;;;;;0.30;0.10;;;;;;;;;;5091791;28;20023;-60
2023/01/16 06:11:53;;;;;;;0.35;0.10;;;;;;;;;;5093443;28;20012;-59
2023/01/16 06:14:18;;;;;;;1.95;0.15;;;;;;;;;;5091846;28;20020;-65
2023/01/16 06:16:44;;;;;;;0.40;0.10;;;;;;;;;;5091855;28;20044;-60
2023/01/16 06:19:10;;;;;;;0.60;0.10;;;;;;;;;;5092150;28;20135;-58
2023/01/16 06:21:35;;;;;;;0.30;0.10;;;;;;;;;;5093054;28;20016;-59
2023/01/16 06:24:01;;;;;;;0.98;0.10;;;;;;;;;;5092336;28;20063;-59
2023/01/16 06:26:26;;;;;;;0.10;0.08;;;;;;;;;;5093380;28;20017;-59
2023/01/16 06:28:52;;;;;;;0.45;0.10;;;;;;;;;;5092620;28;20011;-59
2023/01/16 06:31:17;;;;;;;0.85;0.30;;;;;;;;;;5091465;28;20093;-60
2023/01/16 06:33:43;;;;;;;0.77;0.10;;;;;;;;;;5092360;28;20020;-60
2023/01/16 06:36:08;;;;;;;3.30;0.65;;;;;;;;;;5093032;28;20040;-60
2023/01/16 06:38:34;;;;;;;0.90;0.10;;;;;;;;;;5091184;28;20500;-61
2023/01/16 06:40:59;;;;;;;0.55;0.38;;;;;;;;;;5092015;28;20524;-59
2023/01/16 06:43:25;;;;;;;1.05;0.20;;;;;;;;;;5090940;28;20028;-60
2023/01/16 06:45:51;;;;;;;0.08;0.00;;;;;;;;;;5092280;28;20477;-60
2023/01/16 06:48:17;;;;;;;1.20;0.47;;;;;;;;;;5090420;28;20027;-60
2023/01/16 06:50:42;;;;;;;1.48;0.10;;;;;;;;;;5092107;28;20016;-60
2023/01/16 06:53:08;;;;;;;1.58;0.28;;;;;;;;;;5092381;28;20531;-61
2023/01/16 06:55:33;;;;;;;0.50;0.10;;;;;;;;;;5092141;28;20115;-59
2023/01/16 06:57:58;;;;;;;0.85;0.10;;;;;;;;;;5091951;28;20092;-60
2023/01/16 07:00:24;;;;;;;1.30;0.70;;;;;;;;;;5092051;28;20044;-60
2023/01/16 07:02:56;;;;;;;0.30;0.10;;;;;;;;;;5092685;28;20123;-61
2023/01/16 07:05:25;;;;;;;0.80;0.20;;;;;;;;;;5093383;28;20047;-60
2023/01/16 07:07:51;;;;;;;0.20;0.10;;;;;;;;;;5090659;28;20024;-61
2023/01/16 07:10:20;;;;;;;2.28;0.20;;;;;;;;;;5091659;28;20030;-61
2023/01/16 07:12:45;;;;;;;0.28;0.10;;;;;;;;;;5092113;28;20026;-61
2023/01/16 07:23:31;;;;;;;1.35;0.13;;;;;;;;;;5091749;28;20074;-60
2023/01/16 07:25:59;;;;;;;2.63;0.10;;;;;;;;;;5091913;28;20099;-59
2023/01/16 07:28:25;;;;;;;1.17;0.35;;;;;;;;;;5090525;28;20272;-60
2023/01/16 07:30:50;;;;;;;1.80;0.22;;;;;;;;;;5094103;28;20055;-59
2023/01/16 07:33:16;;;;;;;2.85;0.25;;;;;;;;;;5093945;28;20032;-61
2023/01/16 07:35:42;;;;;;;0.60;0.17;;;;;;;;;;5093938;28;20020;-60
2023/01/16 07:38:08;;;;;;;0.55;0.10;;;;;;;;;;5093797;28;20024;-60
2023/01/16 07:40:33;;;;;;;0.95;0.28;;;;;;;;;;5094034;28;20024;-60
2023/01/16 07:42:58;;;;;;;0.57;0.10;;;;;;;;;;5093515;28;20052;-62
2023/01/16 07:45:24;;;;;;;0.95;0.20;;;;;;;;;;5094438;28;20039;-61
2023/01/16 07:47:49;;;;;;;2.35;0.30;;;;;;;;;;5095128;28;20051;-59
2023/01/16 07:50:15;;;;;;;0.50;0.30;;;;;;;;;;5095639;28;20017;-59
2023/01/16 07:52:42;;;;;;;0.45;0.10;;;;;;;;;;5094610;28;20096;-61
2023/01/16 07:55:07;;;;;;;1.33;0.57;;;;;;;;;;5093283;28;20016;-63
2023/01/16 07:57:35;;;;;;;1.15;0.30;;;;;;;;;;5093847;28;20027;-59
2023/01/16 08:00:00;;;;;;;0.05;0.00;;;;;;;;;;5095082;28;20577;-60
2023/01/16 08:02:25;;;;;;;0.55;0.00;;;;;;;;;;5093222;28;20173;-60
2023/01/16 08:04:51;;;;;;;0.95;0.35;;;;;;;;;;5093865;28;20036;-59
2023/01/16 08:07:17;;;;;;;0.35;0.00;;;;;;;;;;5094542;28;20059;-59
2023/01/16 08:09:43;;;;;;;0.75;0.10;;;;;;;;;;5095222;28;20016;-62
2023/01/16 08:12:08;;;;;;;0.35;0.10;;;;;;;;;;5093414;28;20019;-60
2023/01/16 08:14:33;;;;;;;0.90;0.10;;;;;;;;;;5095376;28;20040;-61
2023/01/16 08:16:59;;;;;;;0.30;0.10;;;;;;;;;;5096934;28;20020;-62
2023/01/16 08:19:25;;;;;;;0.63;0.10;;;;;;;;;;5097534;28;20031;-61
2023/01/16 08:21:50;;;;;;;1.20;0.28;;;;;;;;;;5095337;28;20020;-65
2023/01/16 08:24:17;;;;;;;0.20;0.10;;;;;;;;;;5094079;28;20534;-62
2023/01/16 08:26:43;;;;;;;0.50;0.10;;;;;;;;;;5095282;28;20011;-62
2023/01/16 08:29:09;;;;;;;1.65;0.20;;;;;;;;;;5095515;28;20500;-64
2023/01/16 08:31:34;;;;;;;0.40;0.10;;;;;;;;;;5094581;28;20027;-64
2023/01/16 08:33:59;;;;;;;3.50;1.00;;;;;;;;;;5094174;28;20020;-62
2023/01/16 08:36:25;;;;;;;1.35;0.20;;;;;;;;;;5095172;28;20013;-62
2023/01/16 08:38:50;;;;;;;0.55;0.10;;;;;;;;;;5093835;28;20024;-62
2023/01/16 08:52:13;;;;;;;3.95;0.20;;;;;;;;;;5094608;28;20039;-64
2023/01/16 08:54:39;;;;;;;2.47;0.10;;;;;;;;;;5094101;28;20040;-63
2023/01/16 08:57:04;;;;;;;2.25;0.10;;;;;;;;;;5094523;28;20016;-63
2023/01/16 08:59:33;;;;;;;2.33;0.10;;;;;;;;;;5094258;28;20016;-63
2023/01/16 09:02:02;;;;;;;0.98;0.00;;;;;;;;;;5094467;28;20075;-64
2023/01/16 09:04:28;;;;;;;0.00;0.00;;;;;;;;;;5094304;28;20120;-64
2023/01/16 09:06:54;;;;;;;2.08;0.35;;;;;;;;;;5095435;28;20103;-67
2023/01/16 09:09:20;;;;;;;1.40;0.08;;;;;;;;;;5096552;28;20012;-64
2023/01/16 09:14:29;;;;;;;2.58;0.65;;;;;;;;;;5095932;28;20640;-64
2023/01/16 09:16:55;;;;;;;0.15;0.05;;;;;;;;;;5093310;28;20016;-65
2023/01/16 09:19:21;;;;;;;1.17;0.30;;;;;;;;;;5093798;28;20019;-65
2023/01/16 09:21:46;;;;;;;2.05;0.20;;;;;;;;;;5093036;28;20028;-65
2023/01/16 09:24:11;;;;;;;3.67;0.40;;;;;;;;;;5094938;28;20063;-68
2023/01/16 09:26:37;;;;;;;3.95;0.30;;;;;;;;;;5096342;28;20484;-72
2023/01/16 09:29:02;;;;;;;0.50;0.20;;;;;;;;;;5096097;28;20016;-65
2023/01/16 09:31:28;;;;;;;2.30;0.57;;;;;;;;;;5096229;28;20049;-63
2023/01/16 09:33:54;;;;;;;3.13;0.55;;;;;;;;;;5096421;28;20012;-61
2023/01/16 09:36:20;;;;;;;4.30;0.45;;;;;;;;;;5095011;28;20016;-61
2023/01/16 09:38:46;;;;;;;2.45;0.32;;;;;;;;;;5094696;28;20085;-68
2023/01/16 09:43:35;;;;;;;1.92;0.38;;;;;;;;;;5095524;28;20453;-63
2023/01/16 09:44:01;;;;;;;1.42;0.20;;;;;;;;;;5095033;28;20032;-65
2023/01/16 09:46:28;;;;;;;3.22;1.83;;;;;;;;;;5093720;28;20389;-63
2023/01/16 09:48:56;;;;;;;1.90;0.32;;;;;;;;;;5093865;28;20024;-62
2023/01/16 09:51:24;;;;;;;4.10;0.70;;;;;;;;;;5094066;28;20027;-62
2023/01/16 09:58:35;;;;;;;0.98;0.13;;;;;;;;;;5092799;28;20042;-60
2023/01/16 09:59:43;;;;;;;6.55;0.40;;;;;;;;;;5092828;28;20444;-63
2023/01/16 10:02:14;;;;;;;2.60;0.77;;;;;;;;;;5092697;28;20058;-63
2023/01/16 10:04:40;;;;;;;3.78;0.77;;;;;;;;;;5092658;28;20028;-66
2023/01/16 10:07:23;;;;;;;0.60;0.20;;;;;;;;;;5092384;28;20024;-65
2023/01/16 10:09:58;;;;;;;3.70;0.40;;;;;;;;;;5091260;28;20024;-65
2023/01/16 10:12:28;;;;;;;7.30;0.90;;;;;;;;;;5091586;28;20028;-65
2023/01/16 10:14:53;;;;;;;3.28;1.00;;;;;;;;;;5091205;28;20035;-64
2023/01/16 10:17:22;;;;;;;5.45;1.52;;;;;;;;;;5091035;28;20016;-65
2023/01/16 10:20:07;;;;;;;3.50;0.45;;;;;;;;;;5091086;28;20380;-65
2023/01/16 10:22:39;;;;;;;1.67;0.32;;;;;;;;;;5049890;28;20027;-66
2023/01/16 10:25:19;;;;;;;4.57;1.02;;;;;;;;;;5091132;28;20035;-67
2023/01/16 10:28:05;;;;;;;3.53;1.20;;;;;;;;;;5091254;28;20027;-66
2023/01/16 10:30:41;;;;;;;1.75;0.28;;;;;;;;;;5092243;28;20026;-67
2023/01/16 10:33:33;;;;;;;6.00;0.93;;;;;;;;;;5092977;28;20036;-68
2023/01/16 10:36:01;;;;;;;4.93;0.52;;;;;;;;;;5086611;28;20050;-67
2023/01/16 10:38:45;;;;;;;3.17;0.38;;;;;;;;;;5090694;28;20047;-68
2023/01/16 10:49:31;;;;;;;2.38;0.20;;;;;;;;;;5093787;28;20503;-68
2023/01/16 10:52:00;;;;;;;10.55;1.20;;;;;;;;;;5093431;28;20012;-70
2023/01/16 10:54:26;;;;;;;2.70;0.93;;;;;;;;;;5094405;28;20384;-74
2023/01/16 10:56:51;;;;;;;6.55;0.70;;;;;;;;;;5091728;28;20085;-70
2023/01/16 10:59:17;;;;;;;7.55;1.00;;;;;;;;;;5091740;28;20063;-68
2023/01/16 11:01:42;;;;;;;4.13;0.30;;;;;;;;;;5092201;28;20136;-69
2023/01/16 11:04:11;;;;;;;2.80;0.35;;;;;;;;;;5090772;28;20086;-71
2023/01/16 11:06:40;;;;;;;4.43;1.33;;;;;;;;;;5095752;28;20027;-70
2023/01/16 11:09:15;;;;;;;2.40;0.35;;;;;;;;;;5095591;28;20095;-72
2023/01/16 11:20:11;;;;;;;4.32;0.95;;;;;;;;;;5095420;28;20028;-72
2023/01/16 11:22:38;;;;;;;4.97;1.48;;;;;;;;;;5095488;28;20046;-71
2023/01/16 11:25:04;;;;;;;5.78;0.80;;;;;;;;;;5094414;28;20059;-71
2023/01/16 11:27:36;;;;;;;3.47;0.73;;;;;;;;;;5095798;28;20019;-71
2023/01/16 11:30:04;;;;;;;7.50;0.70;;;;;;;;;;5095902;28;20027;-72
2023/01/16 11:32:34;;;;;;;3.40;0.28;;;;;;;;;;5095523;28;20161;-71
2023/01/16 11:35:00;;;;;;;6.78;0.85;;;;;;;;;;5095773;28;20018;-70
2023/01/16 11:37:28;;;;;;;5.60;0.60;;;;;;;;;;5094526;28;20012;-71
2023/01/16 11:39:54;;;;;;;4.40;1.25;;;;;;;;;;5093696;28;20027;-70
2023/01/16 11:48:25;;;;;;;4.82;0.85;;;;;;;;;;5090032;28;20456;-70
2023/01/16 11:50:55;;;;;;;3.45;0.47;;;;;;;;;;5095818;28;20404;-72
2023/01/16 11:53:21;;;;;;;3.42;1.02;;;;;;;;;;5095263;28;20032;-70
2023/01/16 11:55:57;;;;;;;2.90;0.47;;;;;;;;;;5093572;28;20016;-70
2023/01/16 11:58:34;;;;;;;3.38;0.43;;;;;;;;;;5095453;28;20019;-71
2023/01/16 12:01:20;;;;;;;4.32;0.73;;;;;;;;;;5095049;28;20020;-71
2023/01/16 12:03:51;;;;;;;3.67;0.70;;;;;;;;;;5095134;28;20051;-71
2023/01/16 12:06:25;;;;;;;2.58;0.50;;;;;;;;;;5093693;28;20563;-71
2023/01/16 12:09:05;;;;;;;2.42;0.50;;;;;;;;;;5095459;28;20118;-71
2023/01/16 12:11:57;;;;;;;3.17;0.32;;;;;;;;;;5094132;28;20074;-69
2023/01/16 12:14:29;;;;;;;7.68;1.88;;;;;;;;;;5093711;28;20376;-71
2023/01/16 12:16:55;;;;;;;8.93;0.95;;;;;;;;;;5093181;28;20050;-69
2023/01/16 12:19:31;;;;;;;1.80;0.38;;;;;;;;;;5096031;28;20016;-70
2023/01/16 12:22:09;;;;;;;5.35;0.30;;;;;;;;;;5094267;28;20030;-73
2023/01/16 12:24:46;;;;;;;6.75;1.25;;;;;;;;;;5093763;28;20085;-70
2023/01/16 12:27:34;;;;;;;3.92;1.48;;;;;;;;;;5095718;28;20111;-72
2023/01/16 12:30:15;;;;;;;3.35;0.45;;;;;;;;;;5094975;28;20054;-70
2023/01/16 12:32:57;;;;;;;4.72;0.28;;;;;;;;;;5095010;28;20055;-69
2023/01/16 12:35:23;;;;;;;3.35;0.60;;;;;;;;;;5095365;28;20016;-71
2023/01/16 12:38:21;;;;;;;4.10;0.38;;;;;;;;;;5094791;28;20031;-69
2023/01/16 12:44:08;;;;;;;6.05;0.73;;;;;;;;;;5095049;28;20027;-70
2023/01/16 12:46:53;;;;;;;5.85;0.63;;;;;;;;;;5093606;28;20370;-71
2023/01/16 12:49:25;;;;;;;5.95;0.70;;;;;;;;;;5092749;28;20028;-70
2023/01/16 12:51:54;;;;;;;4.97;0.40;;;;;;;;;;5093013;28;20164;-70
2023/01/16 12:54:38;;;;;;;11.07;0.70;;;;;;;;;;5093917;28;20054;-71
2023/01/16 12:57:22;;;;;;;9.68;2.70;;;;;;;;;;5092652;28;20016;-71
2023/01/16 12:59:53;;;;;;;3.92;0.63;;;;;;;;;;5094091;28;20023;-69
2023/01/16 13:02:39;;;;;;;2.60;0.63;;;;;;;;;;5093852;28;20059;-71
2023/01/16 13:05:12;;;;;;;4.03;0.70;;;;;;;;;;5093762;28;20039;-71
2023/01/16 13:07:46;;;;;;;8.88;0.80;;;;;;;;;;5092623;28;20016;-71
2023/01/16 13:15:47;;;;;;;3.23;0.60;;;;;;;;;;5094004;28;20027;-70
2023/01/16 13:18:18;;;;;;;4.63;1.38;;;;;;;;;;5092888;28;20469;-72
2023/01/16 13:20:45;;;;;;;3.35;1.02;;;;;;;;;;5093574;28;20020;-73
2023/01/16 13:23:16;;;;;;;8.95;1.58;;;;;;;;;;5094088;28;20016;-68
2023/01/16 13:25:44;;;;;;;7.97;0.95;;;;;;;;;;5094211;28;20024;-70
2023/01/16 13:28:25;;;;;;;4.28;0.65;;;;;;;;;;5093273;28;20024;-71
2023/01/16 13:30:53;;;;;;;8.85;1.20;;;;;;;;;;5092244;28;20020;-73
2023/01/16 13:33:20;;;;;;;4.90;0.95;;;;;;;;;;5093407;28;20012;-69
2023/01/16 13:36:05;;;;;;;8.70;1.38;;;;;;;;;;5091941;28;20030;-69
2023/01/16 13:38:35;;;;;;;9.48;0.90;;;;;;;;;;5093389;28;20477;-71
2023/01/16 13:41:11;;;;;;;12.77;1.80;;;;;;;;;;5093005;28;20193;-70
2023/01/16 13:46:26;;;;;;;12.57;1.35;;;;;;;;;;5093264;28;20450;-70
2023/01/16 13:48:53;;;;;;;5.30;1.13;;;;;;;;;;5091782;28;20020;-70
2023/01/16 13:51:20;;;;;;;8.68;1.58;;;;;;;;;;5093255;28;20073;-69
2023/01/16 13:53:51;;;;;;;6.75;1.10;;;;;;;;;;5091844;28;20361;-69
2023/01/16 13:56:21;;;;;;;21.33;2.65;;;;;;;;;;5093191;28;20016;-69
2023/01/16 13:58:48;;;;;;;10.23;0.98;;;;;;;;;;5092385;28;20034;-71
2023/01/16 14:01:30;;;;;;;3.78;0.60;;;;;;;;;;5091273;28;20460;-70
2023/01/16 14:04:14;;;;;;;15.70;2.58;;;;;;;;;;5092772;28;20131;-71
2023/01/16 14:06:49;;;;;;;16.33;2.17;;;;;;;;;;5092772;28;20060;-70
2023/01/16 14:09:23;;;;;;;12.48;2.13;;;;;;;;;;5091179;28;20052;-70
2023/01/16 14:11:59;;;;;;;12.73;1.48;;;;;;;;;;5091457;28;20055;-70
2023/01/16 14:17:15;;;;;;;10.93;1.40;;;;;;;;;;5093265;28;20039;-70
2023/01/16 14:19:52;;;;;;;21.45;2.55;;;;;;;;;;5093737;28;20103;-69
2023/01/16 14:24:50;;;;;;;13.57;1.48;;;;;;;;;;5094418;28;20039;-75
2023/01/16 14:27:18;;;;;;;13.10;1.67;;;;;;;;;;5094833;28;20429;-69
2023/01/16 14:29:52;;;;;;;8.57;1.55;;;;;;;;;;5093090;28;20137;-71
2023/01/16 14:32:19;;;;;;;9.98;2.03;;;;;;;;;;5093080;28;20028;-69
2023/01/16 14:34:51;;;;;;;13.02;1.52;;;;;;;;;;5093322;28;20012;-70
2023/01/16 14:37:18;;;;;;;10.38;2.05;;;;;;;;;;5091527;28;20114;-69
2023/01/16 14:40:06;;;;;;;14.70;2.90;;;;;;;;;;5090067;28;20016;-68
2023/01/16 14:56:39;;;;;;;14.85;2.25;;;;;;;;;;5093519;28;20035;-71
2023/01/16 14:59:07;;;;;;;13.50;2.85;;;;;;;;;;5094239;28;20016;-69
2023/01/16 15:04:29;;;;;;;;;;;;;;;;;;5093455;28;20047;-70
2023/01/16 15:06:59;;;;;;;17.35;2.00;;;;;;;;;;5092424;28;19949;-69
2023/01/16 15:09:27;;;;;;;17.00;2.33;;;;;;;;;;5091556;28;20063;-69
2023/01/16 15:11:52;;;;;;;12.48;1.67;;;;;;;;;;5092529;28;20027;-69
2023/01/16 15:14:25;;;;;;;17.95;2.90;;;;;;;;;;5091690;28;20020;-69
2023/01/16 15:22:42;;;;;;;20.08;2.50;;;;;;;;;;5091917;28;20027;-69
2023/01/16 15:25:22;;;;;;;20.08;2.28;;;;;;;;;;5091703;28;20032;-68
2023/01/16 15:27:51;;;;;;;17.13;2.60;;;;;;;;;;5091822;28;20022;-70
2023/01/16 15:30:19;;;;;;;18.60;2.72;;;;;;;;;;5092501;28;20104;-70
2023/01/16 15:32:52;;;;;;;22.35;3.22;;;;;;;;;;5090468;28;20081;-68
2023/01/16 15:35:18;;;;;;;16.42;2.50;;;;;;;;;;5092132;28;20019;-69
2023/01/16 15:37:51;;;;;;;12.80;2.13;;;;;;;;;;5090999;28;20060;-69
2023/01/16 15:40:24;;;;;;;16.48;2.35;;;;;;;;;;5091686;28;20051;-70
2023/01/16 15:48:26;;;;;;;15.25;2.42;;;;;;;;;;5091660;28;20077;-70
2023/01/16 15:51:04;;;;;;;9.30;2.60;;;;;;;;;;5092838;28;20024;-68
2023/01/16 15:53:45;;;;;;;26.17;2.70;;;;;;;;;;5095438;28;20487;-69
2023/01/16 15:56:16;;;;;;;14.70;1.90;;;;;;;;;;5095452;28;20031;-70
2023/01/16 15:58:42;;;;;;;12.30;2.35;;;;;;;;;;5094910;28;20066;-69
2023/01/16 16:01:08;;;;;;;16.08;3.53;;;;;;;;;;5094603;28;20476;-70
2023/01/16 16:03:42;;;;;;;20.63;2.65;;;;;;;;;;5093395;28;20048;-71
2023/01/16 16:06:09;;;;;;;18.02;1.98;;;;;;;;;;5095253;28;20476;-68
2023/01/16 16:08:37;;;;;;;14.50;2.35;;;;;;;;;;5095729;28;20357;-69
2023/01/16 16:13:47;;;;;;;;;;;;;;;;;;5096701;28;20022;-70
2023/01/16 16:19:30;;;;;;;14.65;2.47;;;;;;;;;;5072023;28;20063;-70
2023/01/16 16:24:41;;;;;;;22.08;4.28;;;;;;;;;;5085725;28;20489;-69
2023/01/16 16:27:11;;;;;;;9.95;2.28;;;;;;;;;;5094440;28;20020;-70
2023/01/16 16:29:36;;;;;;;10.48;1.63;;;;;;;;;;5094277;28;20012;-70
2023/01/16 16:32:03;;;;;;;20.55;2.78;;;;;;;;;;5094212;28;20027;-68
2023/01/16 16:34:30;;;;;;;16.00;2.75;;;;;;;;;;5094949;28;20437;-68
2023/01/16 16:36:59;;;;;;;16.88;3.25;;;;;;;;;;5094519;28;20027;-69
2023/01/16 16:39:27;;;;;;;14.13;2.72;;;;;;;;;;5094607;28;20465;-68
2023/01/16 16:44:43;;;;;;;16.38;2.55;;;;;;;;;;5094390;28;20031;-68